Terminal Aerodrome Forecast
Issued by NWS Wilmington, OH

Current Version | Previous Version | Graphics & Text | Print | Product List | Glossary On
Versions: 1 2 3 4 5 6 7 8 9 10 11 12 13 14 15 16 17 18 19
000
FTUS41 KILN 300500
TAFDAY
TAF
KDAY 300540Z 3006/0106 23004KT 4SM BR BKN025 BKN035
     FM301400 24010KT P6SM BKN025
     FM301600 25012KT P6SM VCSH BKN035
     FM301800 25012G22KT P6SM VCTS BKN040CB
      TEMPO 3018/3022 3SM TSRA BR OVC020CB
     FM010000 26007KT P6SM SCT050 SCT100=

USA.gov is the U.S. government's official web portal to all federal, state and local government web resources and services.